createdAt,value
2018-07-22T00:00:32.464Z,99.90
2018-07-22T00:03:03.332Z,99.90
2018-07-22T00:05:34.222Z,99.90
2018-07-22T00:08:06.089Z,99.90
2018-07-22T00:10:37.268Z,99.90
2018-07-22T00:13:07.867Z,99.90
2018-07-22T00:18:08.698Z,99.90
2018-07-22T00:20:40.121Z,99.90
2018-07-22T00:23:10.693Z,99.90
2018-07-22T00:28:12.709Z,99.90
2018-07-22T00:33:13.346Z,99.90
2018-07-22T00:35:44.057Z,99.90
2018-07-22T00:38:14.703Z,99.90
2018-07-22T00:40:45.301Z,99.90
2018-07-22T00:43:15.887Z,99.90
2018-07-22T00:45:46.948Z,99.90
2018-07-22T00:48:18.179Z,99.90
2018-07-22T00:50:48.619Z,99.90
2018-07-22T00:53:19.272Z,99.90
2018-07-22T00:55:49.768Z,99.90
2018-07-22T00:58:20.414Z,99.90
2018-07-22T01:00:50.973Z,99.90
2018-07-22T01:03:21.627Z,99.90
2018-07-22T01:05:52.839Z,99.90
2018-07-22T01:08:23.923Z,99.90
2018-07-22T01:10:54.342Z,99.90
2018-07-22T01:13:24.956Z,99.90
2018-07-22T01:15:55.697Z,99.90
2018-07-22T01:18:26.537Z,99.90
2018-07-22T01:20:57.330Z,99.90
2018-07-22T01:23:28.133Z,99.90
2018-07-22T01:25:59.728Z,99.90
2018-07-22T01:28:30.522Z,99.90
2018-07-22T01:31:01.409Z,99.90
2018-07-22T01:33:31.937Z,99.90
2018-07-22T01:36:02.342Z,99.90
2018-07-22T01:41:03.331Z,99.90
2018-07-22T01:43:34.284Z,99.90
2018-07-22T01:46:06.073Z,99.90
2018-07-22T01:51:06.735Z,99.90
2018-07-22T01:53:37.364Z,99.90
2018-07-22T01:56:08.007Z,99.90
2018-07-22T01:58:38.611Z,99.90
2018-07-22T02:01:09.184Z,99.90
2018-07-22T02:03:40.172Z,99.90
2018-07-22T02:06:11.219Z,99.90
2018-07-22T02:08:41.790Z,99.90
2018-07-22T02:11:12.395Z,99.90
2018-07-22T02:13:45.725Z,99.90
2018-07-22T02:16:16.158Z,99.90
2018-07-22T02:18:46.562Z,99.90
2018-07-22T02:21:17.886Z,99.90
2018-07-22T02:23:49.105Z,99.90
2018-07-22T02:26:20.185Z,99.90
2018-07-22T02:28:50.694Z,99.90
2018-07-22T02:31:21.313Z,99.90
2018-07-22T02:33:51.766Z,99.90
2018-07-22T02:36:22.321Z,99.90
2018-07-22T02:38:52.993Z,99.90
2018-07-22T02:41:24.205Z,99.90
2018-07-22T02:43:55.134Z,99.90
2018-07-22T02:46:25.941Z,99.90
2018-07-22T02:48:56.375Z,99.90
2018-07-22T02:51:26.815Z,99.90
2018-07-22T02:53:57.358Z,99.90
2018-07-22T02:56:27.990Z,99.90
2018-07-22T03:01:30.232Z,99.90
2018-07-22T03:06:32.459Z,99.90
2018-07-22T03:09:03.299Z,99.90
2018-07-22T03:11:33.774Z,99.90
2018-07-22T03:14:04.206Z,99.90
2018-07-22T03:16:34.744Z,99.90
2018-07-22T03:21:37.075Z,99.90
2018-07-22T03:24:07.846Z,99.90
2018-07-22T03:26:38.457Z,99.90
2018-07-22T03:29:09.099Z,99.90
2018-07-22T03:31:39.616Z,99.90
2018-07-22T03:34:11.078Z,99.90
2018-07-22T03:36:41.814Z,99.90
2018-07-22T03:41:43.821Z,99.90
2018-07-22T03:44:14.291Z,99.90
2018-07-22T03:46:44.939Z,99.90
2018-07-22T03:49:15.331Z,99.90
2018-07-22T03:51:45.914Z,99.90
2018-07-22T03:54:17.231Z,99.90
2018-07-22T03:56:48.174Z,99.90
2018-07-22T03:59:19.539Z,99.90
2018-07-22T04:01:50.187Z,99.90
2018-07-22T04:04:21.268Z,99.90
2018-07-22T04:06:52.138Z,99.90
2018-07-22T04:09:23.312Z,99.90
2018-07-22T04:11:53.983Z,99.90
2018-07-22T04:14:24.645Z,99.90
2018-07-22T04:16:56.687Z,99.90
2018-07-22T04:19:27.482Z,99.90
2018-07-22T04:21:58.180Z,99.90
2018-07-22T04:24:28.609Z,99.90
2018-07-22T04:26:59.279Z,99.90
2018-07-22T04:29:29.748Z,99.90
2018-07-22T04:32:00.293Z,99.90
2018-07-22T04:34:31.548Z,99.90
2018-07-22T04:37:03.217Z,99.90
2018-07-22T04:39:33.863Z,99.90
2018-07-22T04:42:04.533Z,99.90
2018-07-22T04:44:35.176Z,99.90
2018-07-22T04:47:05.734Z,99.90
2018-07-22T04:49:36.336Z,99.90
2018-07-22T04:52:06.920Z,99.90
2018-07-22T04:54:38.599Z,99.90
2018-07-22T04:57:09.409Z,99.90
2018-07-22T04:59:40.072Z,99.90
2018-07-22T05:02:10.715Z,99.90
2018-07-22T05:04:41.260Z,99.90
2018-07-22T05:07:11.859Z,99.90
2018-07-22T05:09:42.307Z,99.90
2018-07-22T05:12:12.933Z,99.90
2018-07-22T05:14:44.370Z,99.90
2018-07-22T05:17:15.549Z,99.90
2018-07-22T05:19:46.111Z,99.90
2018-07-22T05:22:16.709Z,99.90
2018-07-22T05:24:47.176Z,99.90
2018-07-22T05:29:48.309Z,99.90
2018-07-22T05:32:19.418Z,99.90
2018-07-22T05:34:50.944Z,99.90
2018-07-22T05:37:21.541Z,99.90
2018-07-22T05:42:22.181Z,99.90
2018-07-22T05:44:53.079Z,99.90
2018-07-22T05:47:23.632Z,99.90
2018-07-22T05:49:54.279Z,99.90
2018-07-22T05:52:25.538Z,99.90
2018-07-22T05:54:57.484Z,99.90
2018-07-22T05:57:27.980Z,99.90
2018-07-22T05:59:58.437Z,99.90
2018-07-22T06:02:29.239Z,99.90
2018-07-22T06:04:59.897Z,99.90
2018-07-22T06:07:38.734Z,99.90
2018-07-22T06:10:10.092Z,99.90
2018-07-22T06:12:40.704Z,99.90
2018-07-22T06:15:11.426Z,99.90
2018-07-22T06:17:42.249Z,99.90
2018-07-22T06:20:12.830Z,99.90
2018-07-22T06:22:44.499Z,99.90
2018-07-22T06:25:15.571Z,99.90
2018-07-22T06:27:46.082Z,99.90
2018-07-22T06:30:16.740Z,99.90
2018-07-22T06:32:47.541Z,99.90
2018-07-22T06:37:48.293Z,99.90
2018-07-22T06:40:18.981Z,99.90
2018-07-22T06:42:50.296Z,99.90
2018-07-22T06:45:23.012Z,99.90
2018-07-22T06:47:54.107Z,99.90
2018-07-22T06:50:24.855Z,99.90
2018-07-22T06:52:55.501Z,99.90
2018-07-22T06:55:26.992Z,99.90
2018-07-22T07:00:34.959Z,99.90
2018-07-22T07:03:06.625Z,99.90
2018-07-22T07:05:37.261Z,99.90
2018-07-22T07:10:38.603Z,99.90
2018-07-22T07:13:09.318Z,99.90
2018-07-22T07:18:11.180Z,99.90
2018-07-22T07:20:42.255Z,99.90
2018-07-22T07:23:13.620Z,99.90
2018-07-22T07:25:45.450Z,99.90
2018-07-22T07:28:16.166Z,99.90
2018-07-22T07:30:47.763Z,99.90
2018-07-22T07:33:18.462Z,99.90
2018-07-22T07:35:50.232Z,99.90
2018-07-22T07:38:21.187Z,99.90
2018-07-22T07:40:52.132Z,99.90
2018-07-22T07:43:23.172Z,99.90
2018-07-22T07:45:53.875Z,99.90
2018-07-22T07:48:24.663Z,99.00
2018-07-22T07:50:55.304Z,96.70
2018-07-22T07:53:26.808Z,96.70
2018-07-22T07:55:58.045Z,96.20
2018-07-22T07:58:28.872Z,96.00
2018-07-22T08:00:59.510Z,94.90
2018-07-22T08:03:30.291Z,95.00
2018-07-22T08:06:01.041Z,93.20
2018-07-22T08:08:31.987Z,92.50
2018-07-22T08:11:02.625Z,92.40
2018-07-22T08:13:34.044Z,91.00
2018-07-22T08:16:05.386Z,90.80
2018-07-22T08:18:36.919Z,90.30
2018-07-22T08:21:08.350Z,88.20
2018-07-22T08:23:41.664Z,88.30
2018-07-22T08:26:12.499Z,87.00
2018-07-22T08:29:24.247Z,88.40
2018-07-22T08:31:57.758Z,87.60
2018-07-22T08:34:28.691Z,87.10
2018-07-22T08:37:00.181Z,87.00
2018-07-22T08:39:32.345Z,85.30
2018-07-22T08:42:03.568Z,86.80
2018-07-22T08:44:35.042Z,87.60
2018-07-22T08:47:06.719Z,84.30
2018-07-22T08:49:38.414Z,85.10
2018-07-22T08:54:39.854Z,81.50
2018-07-22T08:57:10.420Z,80.90
2018-07-22T08:59:41.049Z,81.00
2018-07-22T09:02:11.904Z,82.90
2018-07-22T09:04:42.712Z,85.60
2018-07-22T09:07:14.182Z,88.20
2018-07-22T09:09:45.176Z,90.60
2018-07-22T09:12:15.784Z,90.60
2018-07-22T09:14:46.541Z,90.10
2018-07-22T09:17:16.947Z,88.60
2018-07-22T09:19:47.670Z,86.80
2018-07-22T09:22:18.389Z,87.10
2018-07-22T09:24:49.621Z,88.50
2018-07-22T09:27:21.247Z,85.60
2018-07-22T09:29:52.077Z,82.70
2018-07-22T09:32:22.735Z,80.10
2018-07-22T09:34:54.413Z,76.90
2018-07-22T09:37:25.053Z,74.00
2018-07-22T09:39:55.954Z,73.20
2018-07-22T09:42:27.042Z,70.30
2018-07-22T09:45:00.243Z,68.60
2018-07-22T09:47:32.704Z,69.50
2018-07-22T09:50:04.542Z,68.00
2018-07-22T09:52:35.107Z,66.60
2018-07-22T09:55:05.985Z,66.60
2018-07-22T09:57:36.956Z,70.20
2018-07-22T10:00:10.565Z,71.70
2018-07-22T10:02:43.098Z,73.60
2018-07-22T10:05:14.017Z,74.50
2018-07-22T10:07:45.732Z,76.30
2018-07-22T10:10:16.909Z,74.50
2018-07-22T10:12:48.176Z,75.50
2018-07-22T10:15:20.221Z,75.10
2018-07-22T10:17:52.549Z,74.50
2018-07-22T10:20:24.064Z,73.50
2018-07-22T10:22:54.857Z,71.00
2018-07-22T10:25:26.795Z,68.40
2018-07-22T10:27:57.817Z,67.10
2018-07-22T10:30:30.497Z,65.70
2018-07-22T10:33:01.676Z,64.90
2018-07-22T10:38:05.630Z,68.20
2018-07-22T10:40:37.939Z,70.30
2018-07-22T10:43:08.794Z,70.30
2018-07-22T10:45:39.529Z,72.80
2018-07-22T10:48:10.379Z,74.70
2018-07-22T10:50:41.298Z,74.40
2018-07-22T10:53:13.051Z,75.80
2018-07-22T10:58:14.742Z,72.20
2018-07-22T11:00:46.063Z,69.20
2018-07-22T11:03:16.827Z,67.30
2018-07-22T11:05:47.689Z,64.40
2018-07-22T11:08:19.014Z,63.00
2018-07-22T11:10:50.256Z,62.20
2018-07-22T11:13:21.718Z,60.90
2018-07-22T11:15:52.948Z,60.70
2018-07-22T11:18:30.720Z,60.50
2018-07-22T11:23:32.063Z,63.60
2018-07-22T11:26:03.534Z,62.80
2018-07-22T11:28:35.220Z,61.30
2018-07-22T11:31:06.072Z,62.10
2018-07-22T11:33:36.814Z,60.60
2018-07-22T11:36:07.514Z,58.80
2018-07-22T11:43:40.937Z,61.30
2018-07-22T11:46:12.422Z,61.60
2018-07-22T11:48:43.841Z,61.20
2018-07-22T11:53:45.595Z,59.50
2018-07-22T11:56:16.963Z,57.20
2018-07-22T11:58:48.456Z,56.70
2018-07-22T12:01:19.505Z,56.00
2018-07-22T12:03:51.492Z,55.80
2018-07-22T12:06:23.486Z,55.20
2018-07-22T12:08:55.045Z,55.60
2018-07-22T12:13:57.096Z,57.20
2018-07-22T12:18:59.514Z,54.20
2018-07-22T12:21:32.095Z,53.00
2018-07-22T12:24:04.233Z,54.80
2018-07-22T12:26:36.385Z,52.90
2018-07-22T12:29:08.222Z,51.10
2018-07-22T12:31:40.986Z,52.50
2018-07-22T12:34:13.853Z,49.50
2018-07-22T12:36:48.815Z,48.40
2018-07-22T12:39:21.708Z,51.50
2018-07-22T12:41:53.411Z,53.00
2018-07-22T12:46:56.315Z,53.60
2018-07-22T12:49:28.866Z,51.80
2018-07-22T12:52:01.547Z,49.40
2018-07-22T12:54:33.289Z,49.30
2018-07-22T12:57:05.960Z,49.70
2018-07-22T12:59:37.692Z,51.20
2018-07-22T13:02:09.685Z,52.80
2018-07-22T13:04:41.924Z,52.90
2018-07-22T13:07:15.924Z,52.90
2018-07-22T13:09:50.622Z,53.60
2018-07-22T13:12:23.001Z,52.00
2018-07-22T13:14:57.222Z,51.80
2018-07-22T13:17:29.966Z,51.00
2018-07-22T13:20:02.865Z,49.20
2018-07-22T13:22:34.566Z,47.70
2018-07-22T13:25:06.772Z,48.70
2018-07-22T13:27:38.891Z,47.50
2018-07-22T13:30:11.303Z,48.70
2018-07-22T13:32:45.466Z,49.90
2018-07-22T13:35:19.198Z,49.90
2018-07-22T13:37:51.068Z,50.00
2018-07-22T13:40:24.001Z,49.00
2018-07-22T13:42:57.694Z,49.30
2018-07-22T13:45:30.810Z,49.70
2018-07-22T13:48:02.819Z,50.70
2018-07-22T13:50:34.868Z,50.90
2018-07-22T13:53:07.276Z,51.10
2018-07-22T13:58:11.055Z,49.30
2018-07-22T14:00:43.094Z,49.20
2018-07-22T14:03:16.056Z,50.30
2018-07-22T14:05:48.084Z,48.80
2018-07-22T14:08:20.240Z,49.70
2018-07-22T14:10:52.518Z,49.50
2018-07-22T14:13:24.065Z,49.60
2018-07-22T14:15:55.957Z,47.10
2018-07-22T14:18:29.217Z,46.20
2018-07-22T14:21:01.289Z,45.80
2018-07-22T14:23:33.229Z,46.20
2018-07-22T14:26:05.613Z,49.00
2018-07-22T14:31:08.398Z,49.90
2018-07-22T14:33:41.784Z,49.40
2018-07-22T14:36:13.993Z,50.80
2018-07-22T14:38:47.042Z,55.30
2018-07-22T14:41:18.870Z,55.20
2018-07-22T14:43:50.461Z,55.00
2018-07-22T14:46:22.178Z,56.30
2018-07-22T14:48:55.077Z,55.00
2018-07-22T14:51:27.465Z,54.50
2018-07-22T14:53:59.150Z,56.70
2018-07-22T14:56:31.583Z,54.10
2018-07-22T14:59:03.464Z,54.00
2018-07-22T15:01:35.506Z,55.30
2018-07-22T15:04:08.020Z,55.50
2018-07-22T15:06:39.648Z,56.50
2018-07-22T15:09:11.333Z,57.40
2018-07-22T15:11:42.733Z,57.30
2018-07-22T15:14:14.224Z,56.20
2018-07-22T15:16:45.353Z,57.00
2018-07-22T15:19:16.832Z,58.60
2018-07-22T15:21:48.822Z,59.80
2018-07-22T15:24:20.183Z,61.10
2018-07-22T15:26:51.338Z,62.30
2018-07-22T15:29:22.881Z,60.80
2018-07-22T15:31:54.139Z,60.60
2018-07-22T15:36:57.839Z,62.00
2018-07-22T15:39:30.195Z,61.40
2018-07-22T15:42:01.835Z,61.40
2018-07-22T15:44:33.801Z,62.50
2018-07-22T15:47:05.531Z,62.30
2018-07-22T15:49:37.753Z,62.00
2018-07-22T15:52:10.426Z,63.80
2018-07-22T15:54:44.430Z,63.30
2018-07-22T15:57:18.267Z,59.90
2018-07-22T15:59:50.322Z,58.60
2018-07-22T16:02:22.116Z,58.40
2018-07-22T16:04:54.772Z,57.40
2018-07-22T16:07:27.933Z,57.80
2018-07-22T16:09:59.754Z,58.20
2018-07-22T16:12:31.615Z,58.30
2018-07-22T16:15:03.459Z,58.90
2018-07-22T16:17:35.202Z,58.40
2018-07-22T16:20:07.349Z,58.10
2018-07-22T16:22:40.888Z,58.90
2018-07-22T16:25:13.125Z,56.40
2018-07-22T16:27:44.762Z,55.40
2018-07-22T16:30:16.905Z,57.30
2018-07-22T16:32:48.685Z,57.80
2018-07-22T16:35:24.632Z,58.80
2018-07-22T16:37:57.255Z,58.00
2018-07-22T16:40:28.696Z,58.30
2018-07-22T16:43:00.240Z,57.30
2018-07-22T16:45:31.962Z,57.70
2018-07-22T16:48:03.631Z,55.80
2018-07-22T16:50:35.363Z,56.90
2018-07-22T16:55:43.726Z,57.10
2018-07-22T17:00:47.640Z,56.90
2018-07-22T17:03:19.619Z,58.40
2018-07-22T17:05:52.801Z,57.50
2018-07-22T17:08:25.711Z,58.00
2018-07-22T17:10:57.505Z,58.60
2018-07-22T17:13:31.027Z,58.60
2018-07-22T17:16:06.006Z,59.90
2018-07-22T17:18:37.557Z,59.40
2018-07-22T17:21:11.241Z,59.90
2018-07-22T17:23:43.194Z,59.60
2018-07-22T17:26:14.980Z,59.50
2018-07-22T17:28:46.902Z,60.60
2018-07-22T17:31:19.083Z,61.50
2018-07-22T17:33:50.801Z,63.10
2018-07-22T17:36:25.239Z,63.90
2018-07-22T17:38:57.653Z,64.30
2018-07-22T17:41:29.143Z,64.50
2018-07-22T17:44:00.843Z,65.10
2018-07-22T17:46:32.482Z,65.00
2018-07-22T17:49:04.243Z,64.50
2018-07-22T17:54:08.487Z,65.30
2018-07-22T17:56:40.269Z,65.30
2018-07-22T18:01:43.876Z,67.10
2018-07-22T18:04:15.849Z,67.60
2018-07-22T18:06:48.144Z,68.70
2018-07-22T18:09:21.937Z,69.10
2018-07-22T18:11:54.003Z,69.70
2018-07-22T18:14:26.676Z,69.90
2018-07-22T18:16:58.841Z,69.90
2018-07-22T18:19:30.601Z,71.10
2018-07-22T18:22:03.567Z,71.50
2018-07-22T18:24:35.450Z,71.70
2018-07-22T18:29:38.508Z,73.30
2018-07-22T18:32:11.490Z,73.70
2018-07-22T18:34:43.324Z,74.10
2018-07-22T18:37:17.566Z,74.90
2018-07-22T18:39:50.571Z,76.10
2018-07-22T18:42:23.337Z,76.70
2018-07-22T18:44:58.670Z,76.20
2018-07-22T18:47:31.696Z,76.50
2018-07-22T18:50:04.483Z,77.50
2018-07-22T18:52:37.178Z,78.80
2018-07-22T18:55:08.943Z,79.40
2018-07-22T18:57:40.943Z,80.50
2018-07-22T19:00:14.198Z,80.70
2018-07-22T19:02:46.448Z,80.70
2018-07-22T19:05:19.876Z,81.00
2018-07-22T19:07:51.514Z,81.60
2018-07-22T19:10:24.659Z,81.80
2018-07-22T19:12:57.173Z,82.70
2018-07-22T19:15:31.053Z,83.30
2018-07-22T19:18:04.041Z,83.60
2018-07-22T19:20:36.481Z,84.10
2018-07-22T19:23:10.138Z,84.50
2018-07-22T19:25:43.477Z,84.60
2018-07-22T19:28:15.768Z,84.90
2018-07-22T19:30:48.374Z,85.50
2018-07-22T19:33:22.245Z,85.50
2018-07-22T19:35:55.917Z,85.50
2018-07-22T19:38:28.649Z,85.50
2018-07-22T19:41:00.968Z,85.60
2018-07-22T19:43:33.251Z,85.90
2018-07-22T19:48:37.628Z,86.00
2018-07-22T19:51:10.202Z,86.50
2018-07-22T19:53:41.999Z,86.50
2018-07-22T19:56:13.862Z,86.60
2018-07-22T19:58:45.797Z,87.20
2018-07-22T20:01:19.819Z,88.10
2018-07-22T20:03:52.470Z,88.50
2018-07-22T20:06:24.998Z,88.70
2018-07-22T20:08:56.821Z,88.60
2018-07-22T20:11:29.506Z,88.30
2018-07-22T20:14:03.275Z,87.70
2018-07-22T20:16:37.534Z,87.90
2018-07-22T20:19:09.748Z,87.10
2018-07-22T20:21:42.455Z,86.80
2018-07-22T20:24:16.103Z,90.40
2018-07-22T20:26:48.937Z,92.30
2018-07-22T20:29:23.206Z,92.80
2018-07-22T20:31:55.448Z,93.50
2018-07-22T20:34:27.843Z,93.10
2018-07-22T20:36:59.639Z,92.60
2018-07-22T20:39:31.707Z,92.70
2018-07-22T20:42:04.790Z,92.60
2018-07-22T20:44:37.635Z,93.00
2018-07-22T20:47:09.541Z,93.10
2018-07-22T20:49:41.261Z,93.10
2018-07-22T20:52:13.030Z,93.40
2018-07-22T20:54:45.960Z,93.60
2018-07-22T20:57:19.124Z,93.80
2018-07-22T20:59:50.969Z,94.20
2018-07-22T21:04:53.661Z,95.10
2018-07-22T21:07:26.056Z,95.70
2018-07-22T21:09:57.663Z,96.10
2018-07-22T21:12:54.443Z,96.60
2018-07-22T21:15:26.039Z,96.70
2018-07-22T21:17:57.765Z,97.00
2018-07-22T21:20:29.253Z,96.80
2018-07-22T21:23:00.309Z,96.90
2018-07-22T21:25:31.517Z,96.00
2018-07-22T21:28:02.757Z,95.00
2018-07-22T21:30:34.178Z,95.70
2018-07-22T21:33:05.398Z,95.20
2018-07-22T21:35:40.191Z,94.80
2018-07-22T21:38:11.476Z,94.70
2018-07-22T21:40:47.646Z,94.20
2018-07-22T21:43:18.344Z,94.20
2018-07-22T21:45:51.808Z,94.50
2018-07-22T21:48:22.745Z,94.70
2018-07-22T21:50:54.451Z,95.10
2018-07-22T21:53:26.688Z,95.50
2018-07-22T21:55:57.301Z,95.80
2018-07-22T21:58:28.362Z,96.00
2018-07-22T22:00:59.122Z,96.10
2018-07-22T22:03:29.898Z,96.30
2018-07-22T22:06:00.664Z,96.30
2018-07-22T22:08:31.591Z,95.80
2018-07-22T22:11:03.072Z,95.70
2018-07-22T22:13:34.395Z,95.40
2018-07-22T22:16:05.112Z,95.40
2018-07-22T22:18:35.756Z,95.20
2018-07-22T22:21:07.008Z,95.30
2018-07-22T22:23:37.547Z,96.20
2018-07-22T22:26:08.231Z,95.70
2018-07-22T22:28:39.053Z,95.80
2018-07-22T22:31:10.495Z,96.10
2018-07-22T22:36:11.038Z,94.70
2018-07-22T22:38:41.553Z,94.40
2018-07-22T22:41:11.982Z,94.10
2018-07-22T22:43:42.658Z,94.00
2018-07-22T22:46:13.202Z,94.10
2018-07-22T22:48:44.003Z,94.10
2018-07-22T22:51:15.586Z,94.20
2018-07-22T22:53:46.140Z,94.60
2018-07-22T22:56:17.229Z,95.00
2018-07-22T22:59:04.763Z,95.00
2018-07-22T23:01:36.457Z,94.50
2018-07-22T23:04:07.098Z,94.40
2018-07-22T23:06:37.401Z,94.60
2018-07-22T23:11:42.651Z,96.20
2018-07-22T23:14:13.372Z,97.70
2018-07-22T23:16:44.382Z,97.10
2018-07-22T23:19:15.882Z,97.90
2018-07-22T23:21:46.183Z,99.70
2018-07-22T23:24:16.890Z,99.90
2018-07-22T23:26:47.452Z,99.90
2018-07-22T23:29:18.151Z,99.60
2018-07-22T23:31:48.815Z,99.90
2018-07-22T23:36:49.741Z,99.90
2018-07-22T23:39:21.491Z,99.40
2018-07-22T23:44:23.213Z,99.90
2018-07-22T23:49:23.745Z,99.90
2018-07-22T23:51:54.311Z,99.90
2018-07-22T23:54:24.953Z,99.90
2018-07-22T23:56:55.814Z,99.90
2018-07-22T23:59:27.161Z,99.90
